Time;durP1;ratioP1;P1;durP2;ratioP2;P2;SDS_P1;SDS_P2;PMS_P1;PMS_P2;Temp;Humidity;BMP_temperature;BMP_pressure;BME280_temperature;BME280_humidity;BME280_pressure;Samples;Min_cycle;Max_cycle;Signal;HPM_P1;HPM_P2
2022/10/06 00:01:48;;;;;;;;;;;15.40;99.90;;;;;;4934290;29;19988;-68
2022/10/06 00:04:15;;;;;;;;;;;15.30;99.90;;;;;;4934866;29;19910;-70
2022/10/06 00:06:42;;;;;;;;;;;15.40;99.90;;;;;;4934880;29;20491;-67
2022/10/06 00:09:08;;;;;;;;;;;15.30;99.90;;;;;;4934475;29;19994;-68
2022/10/06 00:11:35;;;;;;;;;;;15.30;99.90;;;;;;4934371;29;19911;-69
2022/10/06 00:14:01;;;;;;;;;;;15.20;99.90;;;;;;4934958;29;19966;-73
2022/10/06 00:16:28;;;;;;;;;;;15.20;99.90;;;;;;4934796;29;20006;-69
2022/10/06 00:18:56;;;;;;;;;;;15.20;99.90;;;;;;4934849;29;19911;-70
2022/10/06 00:21:23;;;;;;;;;;;15.20;99.90;;;;;;4934301;29;19950;-72
2022/10/06 00:23:50;;;;;;;;;;;15.10;99.90;;;;;;4934576;29;19911;-69
2022/10/06 00:26:16;;;;;;;;;;;15.20;99.90;;;;;;4934694;29;19921;-68
2022/10/06 00:28:45;;;;;;;;;;;15.20;99.90;;;;;;4934710;29;19959;-69
2022/10/06 00:31:12;;;;;;;;;;;15.20;99.90;;;;;;4934114;29;19926;-70
2022/10/06 00:33:39;;;;;;;;;;;15.30;99.90;;;;;;4934772;29;19962;-69
2022/10/06 00:36:06;;;;;;;;;;;15.30;99.90;;;;;;4934600;29;20035;-70
2022/10/06 00:38:33;;;;;;;;;;;15.30;99.90;;;;;;4934770;29;19911;-68
2022/10/06 00:41:00;;;;;;;;;;;15.30;99.90;;;;;;4934229;29;19911;-69
2022/10/06 00:43:45;;;;;;;;;;;15.30;99.90;;;;;;4934423;29;19915;-71
2022/10/06 00:46:15;;;;;;;;;;;15.40;99.90;;;;;;4934457;29;20397;-73
2022/10/06 00:48:42;;;;;;;;;;;15.40;99.90;;;;;;4934579;29;19911;-69
2022/10/06 00:51:09;;;;;;;;;;;15.30;99.90;;;;;;4933989;29;20025;-69
2022/10/06 00:53:36;;;;;;;;;;;15.30;99.90;;;;;;4934468;29;20330;-68
2022/10/06 00:56:03;;;;;;;;;;;15.20;99.90;;;;;;4934297;29;19911;-68
2022/10/06 00:58:30;;;;;;;;;;;15.20;99.90;;;;;;4934388;29;19962;-70
2022/10/06 01:00:57;;;;;;;;;;;15.20;99.90;;;;;;4934040;29;19918;-69
2022/10/06 01:03:35;;;;;;;;;;;15.20;99.90;;;;;;4934753;29;19919;-68
2022/10/06 01:06:02;;;;;;;;;;;15.20;99.90;;;;;;4934458;29;19919;-69
2022/10/06 01:08:30;;;;;;;;;;;15.20;99.90;;;;;;4937557;29;20002;-69
2022/10/06 01:10:56;;;;;;;;;;;15.20;99.90;;;;;;4937742;29;19977;-70
2022/10/06 01:13:24;;;;;;;;;;;15.20;99.90;;;;;;4938199;29;19910;-67
2022/10/06 01:15:53;;;;;;;;;;;15.20;99.90;;;;;;4938861;29;19914;-67
2022/10/06 01:18:21;;;;;;;;;;;15.20;99.90;;;;;;4941146;29;20374;-73
2022/10/06 01:20:50;;;;;;;;;;;15.20;99.90;;;;;;4937842;29;19961;-72
2022/10/06 01:23:17;;;;;;;;;;;15.20;99.90;;;;;;4938660;29;19938;-75
2022/10/06 01:25:44;;;;;;;;;;;15.20;99.90;;;;;;4938209;29;19917;-74
2022/10/06 01:28:11;;;;;;;;;;;15.20;99.90;;;;;;4937942;29;19950;-73
2022/10/06 01:30:41;;;;;;;;;;;15.30;99.90;;;;;;4937372;29;19919;-73
2022/10/06 01:33:08;;;;;;;;;;;15.30;99.90;;;;;;4937434;29;19918;-73
2022/10/06 01:35:34;;;;;;;;;;;15.30;99.90;;;;;;4937294;29;19937;-73
2022/10/06 01:38:01;;;;;;;;;;;15.30;99.90;;;;;;4937854;29;19918;-72
2022/10/06 01:40:28;;;;;;;;;;;15.30;99.90;;;;;;4937563;29;19915;-72
2022/10/06 01:42:55;;;;;;;;;;;15.30;99.90;;;;;;4937043;29;20009;-72
2022/10/06 01:45:21;;;;;;;;;;;15.30;99.90;;;;;;4937083;29;19997;-73
2022/10/06 01:47:48;;;;;;;;;;;15.30;99.90;;;;;;4937183;29;19914;-71
2022/10/06 01:50:15;;;;;;;;;;;15.30;99.90;;;;;;4937001;29;20438;-73
2022/10/06 01:52:42;;;;;;;;;;;15.30;99.90;;;;;;4936774;29;19915;-73
2022/10/06 01:55:09;;;;;;;;;;;15.30;99.90;;;;;;4936842;29;20430;-70
2022/10/06 01:57:42;;;;;;;;;;;15.20;99.90;;;;;;4936965;29;19911;-69
2022/10/06 02:00:09;;;;;;;;;;;15.20;99.90;;;;;;4937021;29;19911;-71
2022/10/06 02:02:36;;;;;;;;;;;15.30;99.90;;;;;;4936405;29;20321;-70
2022/10/06 02:05:03;;;;;;;;;;;15.30;99.90;;;;;;4936545;29;19946;-70
2022/10/06 02:07:29;;;;;;;;;;;15.40;99.90;;;;;;4936836;29;19911;-71
2022/10/06 02:09:56;;;;;;;;;;;15.30;99.90;;;;;;4936420;29;20267;-72
2022/10/06 02:12:23;;;;;;;;;;;15.30;99.90;;;;;;4936435;29;20385;-70
2022/10/06 02:14:50;;;;;;;;;;;15.20;99.90;;;;;;4936645;29;20009;-68
2022/10/06 02:17:16;;;;;;;;;;;15.10;99.90;;;;;;4936297;29;19911;-70
2022/10/06 02:19:43;;;;;;;;;;;15.10;99.90;;;;;;4936359;29;19911;-75
2022/10/06 02:22:10;;;;;;;;;;;15.10;99.90;;;;;;4936176;29;19915;-73
2022/10/06 02:24:36;;;;;;;;;;;15.20;99.90;;;;;;4936519;29;19933;-70
2022/10/06 02:27:04;;;;;;;;;;;15.20;99.90;;;;;;4936275;29;19934;-71
2022/10/06 02:29:30;;;;;;;;;;;15.30;99.90;;;;;;4936285;29;19919;-70
2022/10/06 02:31:57;;;;;;;;;;;15.30;99.90;;;;;;4936184;29;19915;-72
2022/10/06 02:34:24;;;;;;;;;;;15.30;99.90;;;;;;4936377;29;19971;-72
2022/10/06 02:36:50;;;;;;;;;;;15.20;99.90;;;;;;4936306;29;20345;-71
2022/10/06 02:39:17;;;;;;;;;;;15.20;99.90;;;;;;4935907;29;19957;-69
2022/10/06 02:41:45;;;;;;;;;;;15.20;99.90;;;;;;4935799;29;20082;-74
2022/10/06 02:44:12;;;;;;;;;;;15.30;99.90;;;;;;4936112;29;19933;-71
2022/10/06 02:46:40;;;;;;;;;;;15.30;99.90;;;;;;4934968;29;19922;-70
2022/10/06 02:49:07;;;;;;;;;;;15.30;99.90;;;;;;4935788;29;19911;-73
2022/10/06 02:51:33;;;;;;;;;;;15.30;99.90;;;;;;4935572;29;19914;-70
2022/10/06 02:54:00;;;;;;;;;;;15.40;99.90;;;;;;4935901;29;19915;-69
2022/10/06 02:56:27;;;;;;;;;;;15.40;99.90;;;;;;4935894;29;20378;-69
2022/10/06 02:58:54;;;;;;;;;;;15.40;99.90;;;;;;4935641;29;19911;-69
2022/10/06 03:01:25;;;;;;;;;;;15.40;99.90;;;;;;4935104;29;19929;-70
2022/10/06 03:03:52;;;;;;;;;;;15.40;99.90;;;;;;4935611;29;20362;-70
2022/10/06 03:06:23;;;;;;;;;;;15.50;99.90;;;;;;4935750;29;20305;-69
2022/10/06 03:08:50;;;;;;;;;;;15.50;99.90;;;;;;4935543;29;20014;-69
2022/10/06 03:11:18;;;;;;;;;;;15.50;99.90;;;;;;4935039;29;20397;-69
2022/10/06 03:13:48;;;;;;;;;;;15.50;99.90;;;;;;4935825;29;19915;-70
2022/10/06 03:16:16;;;;;;;;;;;15.50;99.90;;;;;;4935409;29;20358;-69
2022/10/06 03:18:44;;;;;;;;;;;15.50;99.90;;;;;;4935466;29;19915;-70
2022/10/06 03:21:13;;;;;;;;;;;15.50;99.90;;;;;;4934918;29;19918;-69
2022/10/06 03:23:42;;;;;;;;;;;15.60;99.90;;;;;;4935176;29;20002;-69
2022/10/06 03:26:08;;;;;;;;;;;15.50;99.90;;;;;;4935361;29;19914;-70
2022/10/06 03:28:35;;;;;;;;;;;15.60;99.90;;;;;;4935502;29;19921;-69
2022/10/06 03:31:02;;;;;;;;;;;15.70;99.90;;;;;;4934136;29;19919;-69
2022/10/06 03:33:29;;;;;;;;;;;15.60;99.90;;;;;;4935280;29;20441;-68
2022/10/06 03:36:04;;;;;;;;;;;15.60;99.90;;;;;;4935207;29;19917;-69
2022/10/06 03:38:34;;;;;;;;;;;15.60;99.90;;;;;;4934998;29;19922;-69
2022/10/06 03:41:03;;;;;;;;;;;15.70;99.90;;;;;;4934796;29;19966;-69
2022/10/06 03:43:30;;;;;;;;;;;15.70;99.90;;;;;;4935157;29;19915;-70
2022/10/06 03:45:58;;;;;;;;;;;15.70;99.90;;;;;;4935018;29;20334;-69
2022/10/06 03:48:24;;;;;;;;;;;15.60;99.90;;;;;;4935040;29;19918;-69
2022/10/06 03:50:58;;;;;;;;;;;15.70;99.90;;;;;;4934633;29;19929;-69
2022/10/06 03:53:26;;;;;;;;;;;15.80;99.90;;;;;;4934774;29;19911;-69
2022/10/06 03:56:02;;;;;;;;;;;15.80;99.90;;;;;;4935066;29;20373;-68
2022/10/06 03:58:29;;;;;;;;;;;15.80;99.90;;;;;;4935140;29;19911;-68
2022/10/06 04:01:15;;;;;;;;;;;15.80;99.90;;;;;;4934340;29;20338;-68
2022/10/06 04:03:43;;;;;;;;;;;15.80;99.90;;;;;;4934949;29;19918;-67
2022/10/06 04:06:18;;;;;;;;;;;15.80;99.90;;;;;;4932861;29;21323;-67
2022/10/06 04:08:48;;;;;;;;;;;15.80;99.90;;;;;;4934687;29;19911;-68
2022/10/06 04:11:22;;;;;;;;;;;15.80;99.90;;;;;;4934181;29;20023;-68
2022/10/06 04:13:51;;;;;;;;;;;15.80;99.90;;;;;;4934747;29;20006;-69
2022/10/06 04:16:19;;;;;;;;;;;15.80;99.90;;;;;;4934668;29;19914;-69
2022/10/06 04:18:48;;;;;;;;;;;15.80;99.90;;;;;;4934794;29;19993;-73
2022/10/06 04:21:15;;;;;;;;;;;15.80;99.90;;;;;;4934203;29;20009;-69
2022/10/06 04:23:41;;;;;;;;;;;15.80;99.90;;;;;;4934515;29;20267;-69
2022/10/06 04:26:13;;;;;;;;;;;15.80;99.90;;;;;;4934696;29;20256;-69
2022/10/06 04:28:40;;;;;;;;;;;15.80;99.90;;;;;;4934526;29;19954;-68
2022/10/06 04:31:12;;;;;;;;;;;15.80;99.90;;;;;;4934020;29;20017;-69
2022/10/06 04:33:38;;;;;;;;;;;15.70;99.90;;;;;;4934679;29;19919;-72
2022/10/06 04:36:06;;;;;;;;;;;15.60;99.90;;;;;;4934743;29;20359;-69
2022/10/06 04:38:34;;;;;;;;;;;15.60;99.90;;;;;;4934641;29;19962;-73
2022/10/06 04:41:07;;;;;;;;;;;15.60;99.90;;;;;;4934850;29;20035;-72
2022/10/06 04:43:35;;;;;;;;;;;15.60;99.90;;;;;;4938295;29;19915;-70
2022/10/06 04:46:02;;;;;;;;;;;15.60;99.90;;;;;;4938004;29;19914;-70
2022/10/06 04:48:29;;;;;;;;;;;15.60;99.90;;;;;;4938256;29;20333;-71
2022/10/06 04:50:57;;;;;;;;;;;15.60;99.90;;;;;;4937797;29;19925;-69
2022/10/06 04:53:24;;;;;;;;;;;15.60;99.90;;;;;;4937915;29;19911;-72
2022/10/06 04:55:59;;;;;;;;;;;15.60;99.90;;;;;;4938105;29;19911;-73
2022/10/06 04:58:29;;;;;;;;;;;15.60;99.90;;;;;;4938146;29;19911;-72
2022/10/06 05:00:55;;;;;;;;;;;15.60;99.90;;;;;;4936899;29;19922;-72
2022/10/06 05:03:22;;;;;;;;;;;15.60;99.90;;;;;;4937673;29;20037;-72
2022/10/06 05:05:49;;;;;;;;;;;15.60;99.90;;;;;;4938098;29;19915;-68
2022/10/06 05:08:16;;;;;;;;;;;15.70;99.90;;;;;;4937747;29;20298;-73
2022/10/06 05:10:42;;;;;;;;;;;15.70;99.90;;;;;;4937516;29;19925;-70
2022/10/06 05:13:10;;;;;;;;;;;15.80;99.90;;;;;;4937629;29;19915;-71
2022/10/06 05:15:37;;;;;;;;;;;15.80;99.90;;;;;;4937637;29;19911;-71
2022/10/06 05:18:03;;;;;;;;;;;15.80;99.90;;;;;;4937809;29;20035;-72
2022/10/06 05:20:30;;;;;;;;;;;15.80;99.90;;;;;;4937749;29;19966;-70
2022/10/06 05:22:57;;;;;;;;;;;15.80;99.90;;;;;;4937361;29;19918;-69
2022/10/06 05:25:23;;;;;;;;;;;15.80;99.90;;;;;;4937333;29;20030;-70
2022/10/06 05:27:50;;;;;;;;;;;15.80;99.90;;;;;;4937503;29;19958;-68
2022/10/06 05:30:17;;;;;;;;;;;15.70;99.90;;;;;;4937125;29;20013;-71
2022/10/06 05:32:45;;;;;;;;;;;15.70;99.90;;;;;;4937513;29;19914;-73
2022/10/06 05:35:12;;;;;;;;;;;15.70;99.90;;;;;;4937110;29;19911;-72
2022/10/06 05:37:39;;;;;;;;;;;15.80;99.90;;;;;;4937071;29;19911;-68
2022/10/06 05:40:06;;;;;;;;;;;15.80;99.90;;;;;;4937299;29;19915;-74
2022/10/06 05:42:32;;;;;;;;;;;15.80;99.90;;;;;;4936936;29;20309;-74
2022/10/06 05:44:59;;;;;;;;;;;15.70;99.90;;;;;;4937311;29;19914;-72
2022/10/06 05:47:26;;;;;;;;;;;15.70;99.90;;;;;;4936973;29;19950;-73
2022/10/06 05:49:52;;;;;;;;;;;15.70;99.90;;;;;;4936999;29;19915;-71
2022/10/06 05:52:19;;;;;;;;;;;15.80;99.90;;;;;;4933874;29;19953;-73
2022/10/06 05:54:46;;;;;;;;;;;15.80;99.90;;;;;;4934768;29;20021;-72
2022/10/06 05:57:12;;;;;;;;;;;15.80;99.90;;;;;;4934835;29;20385;-72
2022/10/06 05:59:39;;;;;;;;;;;15.80;99.90;;;;;;4935138;29;19910;-71
2022/10/06 06:02:06;;;;;;;;;;;15.80;99.90;;;;;;4934321;29;20715;-72
2022/10/06 06:04:32;;;;;;;;;;;15.80;99.90;;;;;;4934435;29;19911;-71
2022/10/06 06:06:59;;;;;;;;;;;15.80;99.90;;;;;;4934775;29;19927;-71
2022/10/06 06:09:27;;;;;;;;;;;15.80;99.90;;;;;;4934504;29;19922;-74
2022/10/06 06:11:54;;;;;;;;;;;15.80;99.90;;;;;;4934607;29;20325;-72
2022/10/06 06:15:59;;;;;;;;;;;15.90;99.90;;;;;;4935040;29;19953;-73
2022/10/06 06:17:10;;;;;;;;;;;15.90;99.90;;;;;;4934258;29;19911;-73
2022/10/06 06:19:37;;;;;;;;;;;15.90;99.90;;;;;;4934441;29;19915;-73
2022/10/06 06:22:03;;;;;;;;;;;16.00;99.90;;;;;;4934041;29;20373;-73
2022/10/06 06:24:30;;;;;;;;;;;15.90;99.90;;;;;;4934598;29;20363;-73
2022/10/06 06:26:57;;;;;;;;;;;15.90;99.90;;;;;;4934732;29;19926;-75
2022/10/06 06:29:24;;;;;;;;;;;16.00;99.90;;;;;;4934244;29;20002;-73
2022/10/06 06:31:50;;;;;;;;;;;15.90;99.90;;;;;;4934102;29;19919;-75
2022/10/06 06:34:17;;;;;;;;;;;15.90;99.90;;;;;;4934422;29;19918;-72
2022/10/06 06:36:46;;;;;;;;;;;15.90;99.90;;;;;;4934271;29;19958;-70
2022/10/06 06:39:13;;;;;;;;;;;15.90;99.90;;;;;;4933932;29;19911;-71
2022/10/06 06:41:41;;;;;;;;;;;15.90;99.90;;;;;;4933744;29;19918;-72
2022/10/06 06:44:10;;;;;;;;;;;15.90;99.90;;;;;;4934015;29;19915;-72
2022/10/06 06:46:37;;;;;;;;;;;15.90;99.90;;;;;;4934187;29;19954;-73
2022/10/06 06:49:04;;;;;;;;;;;15.80;99.90;;;;;;4934010;29;19911;-71
2022/10/06 06:51:32;;;;;;;;;;;15.80;99.90;;;;;;4933578;29;19919;-72
2022/10/06 06:54:01;;;;;;;;;;;15.80;99.90;;;;;;4933927;29;19915;-73
2022/10/06 06:56:28;;;;;;;;;;;15.80;99.90;;;;;;4933477;29;19973;-73
2022/10/06 06:58:55;;;;;;;;;;;15.80;99.90;;;;;;4933867;29;19930;-72
2022/10/06 07:01:22;;;;;;;;;;;15.80;99.90;;;;;;4933277;29;20370;-72
2022/10/06 07:03:52;;;;;;;;;;;15.80;99.90;;;;;;4933786;29;20330;-70
2022/10/06 07:06:19;;;;;;;;;;;15.80;99.90;;;;;;4933131;29;20334;-75
2022/10/06 07:08:47;;;;;;;;;;;15.90;99.90;;;;;;4933659;29;19923;-73
2022/10/06 07:11:22;;;;;;;;;;;15.80;99.90;;;;;;4932919;29;19929;-74
2022/10/06 07:13:52;;;;;;;;;;;15.80;99.90;;;;;;4933681;29;19949;-70
2022/10/06 07:27:24;;;;;;;;;;;15.70;99.90;;;;;;4933643;29;19969;-68
2022/10/06 07:29:53;;;;;;;;;;;15.70;99.90;;;;;;4933562;29;19993;-73
2022/10/06 07:32:20;;;;;;;;;;;15.70;99.90;;;;;;4933259;29;19922;-69
2022/10/06 07:34:47;;;;;;;;;;;15.70;99.90;;;;;;4933979;29;19958;-74
2022/10/06 07:37:14;;;;;;;;;;;15.80;99.90;;;;;;4933890;29;19921;-71
2022/10/06 07:39:41;;;;;;;;;;;15.80;99.90;;;;;;4934088;29;20005;-75
2022/10/06 07:42:13;;;;;;;;;;;15.80;99.90;;;;;;4933706;29;19914;-74
2022/10/06 07:44:40;;;;;;;;;;;15.80;99.90;;;;;;4933399;29;19966;-69
2022/10/06 07:47:07;;;;;;;;;;;15.80;99.90;;;;;;4932739;29;19922;-72
2022/10/06 07:49:34;;;;;;;;;;;15.80;99.90;;;;;;4932910;29;19921;-70
2022/10/06 07:52:04;;;;;;;;;;;15.80;99.90;;;;;;4932770;29;19921;-69
2022/10/06 07:54:30;;;;;;;;;;;15.80;99.90;;;;;;4933247;29;19922;-71
2022/10/06 07:56:57;;;;;;;;;;;15.80;99.90;;;;;;4932990;29;20434;-70
2022/10/06 07:59:24;;;;;;;;;;;15.80;99.90;;;;;;4932896;29;19911;-70
2022/10/06 08:01:51;;;;;;;;;;;15.80;99.90;;;;;;4932704;29;19918;-74
2022/10/06 08:04:18;;;;;;;;;;;15.80;99.90;;;;;;4934328;29;19934;-72
2022/10/06 08:06:46;;;;;;;;;;;15.80;99.90;;;;;;4933702;29;20013;-71
2022/10/06 08:09:13;;;;;;;;;;;15.80;99.90;;;;;;4934269;29;20370;-75
2022/10/06 08:11:40;;;;;;;;;;;15.70;99.90;;;;;;4934748;29;19994;-73
2022/10/06 08:14:06;;;;;;;;;;;15.70;99.90;;;;;;4935066;29;19915;-74
2022/10/06 08:16:33;;;;;;;;;;;15.70;99.90;;;;;;4936342;29;19922;-73
2022/10/06 08:19:00;;;;;;;;;;;15.70;99.90;;;;;;4939177;29;19942;-71
2022/10/06 08:21:28;;;;;;;;;;;15.70;99.90;;;;;;4932497;29;19922;-72
2022/10/06 08:23:55;;;;;;;;;;;15.70;99.90;;;;;;4930613;29;19922;-73
2022/10/06 08:26:23;;;;;;;;;;;15.70;99.90;;;;;;4930524;29;19914;-73
2022/10/06 08:28:52;;;;;;;;;;;15.70;99.90;;;;;;4930404;29;19915;-70
2022/10/06 08:31:20;;;;;;;;;;;15.60;99.90;;;;;;4930132;29;19961;-73
2022/10/06 08:33:47;;;;;;;;;;;15.60;99.90;;;;;;4930394;29;19915;-70
2022/10/06 08:36:16;;;;;;;;;;;15.60;99.90;;;;;;4930201;29;19986;-73
2022/10/06 08:38:44;;;;;;;;;;;15.60;99.90;;;;;;4930255;29;19989;-72
2022/10/06 08:41:18;;;;;;;;;;;15.50;99.90;;;;;;4929983;29;19915;-71
2022/10/06 08:44:06;;;;;;;;;;;15.50;99.90;;;;;;4930438;29;19970;-71
2022/10/06 08:46:45;;;;;;;;;;;15.50;99.90;;;;;;4930186;29;19915;-75
2022/10/06 08:49:16;;;;;;;;;;;15.50;99.90;;;;;;4929599;29;19915;-73
2022/10/06 08:51:50;;;;;;;;;;;15.50;99.90;;;;;;4930107;29;19923;-74
2022/10/06 08:54:23;;;;;;;;;;;15.50;99.90;;;;;;4930163;29;19937;-72
2022/10/06 08:57:02;;;;;;;;;;;15.40;99.90;;;;;;4929952;29;19914;-75
2022/10/06 08:59:32;;;;;;;;;;;15.40;99.90;;;;;;4929785;29;19946;-72
2022/10/06 09:01:59;;;;;;;;;;;15.40;99.90;;;;;;4929295;29;19927;-75
2022/10/06 09:04:28;;;;;;;;;;;15.40;99.90;;;;;;4930072;29;19915;-72
2022/10/06 09:07:07;;;;;;;;;;;15.40;99.90;;;;;;4929800;29;19915;-74
2022/10/06 09:09:52;;;;;;;;;;;15.40;99.90;;;;;;4929810;29;19915;-76
2022/10/06 09:12:26;;;;;;;;;;;15.40;99.90;;;;;;4930021;29;19919;-73
2022/10/06 09:15:01;;;;;;;;;;;15.40;99.90;;;;;;4929477;29;19940;-74
2022/10/06 09:17:31;;;;;;;;;;;15.40;99.90;;;;;;4937917;29;19911;-75
2022/10/06 09:20:00;;;;;;;;;;;15.40;99.90;;;;;;4937509;29;19911;-75
2022/10/06 09:22:30;;;;;;;;;;;15.40;99.90;;;;;;4937608;29;19915;-75
2022/10/06 09:24:58;;;;;;;;;;;15.40;99.90;;;;;;4937457;29;19910;-75
2022/10/06 09:27:32;;;;;;;;;;;15.40;99.90;;;;;;4936568;29;19914;-70
2022/10/06 09:30:00;;;;;;;;;;;15.40;99.90;;;;;;4937211;29;19927;-74
2022/10/06 09:32:28;;;;;;;;;;;15.40;99.90;;;;;;4937532;29;20390;-73
2022/10/06 09:34:58;;;;;;;;;;;15.40;99.90;;;;;;4937516;29;19918;-72
2022/10/06 09:37:28;;;;;;;;;;;15.40;99.90;;;;;;4937387;29;19949;-75
2022/10/06 09:39:55;;;;;;;;;;;15.40;99.90;;;;;;4937049;29;19911;-72
2022/10/06 09:42:24;;;;;;;;;;;15.40;99.90;;;;;;4937420;29;19919;-76
2022/10/06 09:44:51;;;;;;;;;;;15.40;99.90;;;;;;4937372;29;20378;-75
2022/10/06 09:47:37;;;;;;;;;;;15.40;99.90;;;;;;4937042;29;19917;-74
2022/10/06 09:50:24;;;;;;;;;;;15.40;99.90;;;;;;4936965;29;19918;-74
2022/10/06 09:52:59;;;;;;;;;;;15.40;99.90;;;;;;4937057;29;19911;-71
2022/10/06 09:55:29;;;;;;;;;;;15.40;99.90;;;;;;4936966;29;19914;-71
2022/10/06 09:57:56;;;;;;;;;;;15.40;99.90;;;;;;4937228;29;19915;-73
2022/10/06 10:00:38;;;;;;;;;;;15.40;99.90;;;;;;4936779;29;20437;-74
2022/10/06 10:03:07;;;;;;;;;;;15.40;99.90;;;;;;4936831;29;20346;-74
2022/10/06 10:05:37;;;;;;;;;;;15.40;99.90;;;;;;4936757;29;20028;-73
2022/10/06 10:08:23;;;;;;;;;;;15.40;99.90;;;;;;4936835;29;19958;-75
2022/10/06 10:13:58;;;;;;;;;;;15.40;99.90;;;;;;4937155;29;19966;-72
2022/10/06 10:16:25;;;;;;;;;;;15.40;99.90;;;;;;4936548;29;19918;-70
2022/10/06 10:18:52;;;;;;;;;;;15.40;99.90;;;;;;4936615;29;19911;-70
2022/10/06 10:21:28;;;;;;;;;;;15.40;99.90;;;;;;4934174;29;19923;-72
2022/10/06 10:24:00;;;;;;;;;;;15.40;99.90;;;;;;4928132;29;20457;-71
2022/10/06 10:26:26;;;;;;;;;;;15.40;99.90;;;;;;4928499;29;20052;-73
2022/10/06 10:29:13;;;;;;;;;;;15.40;99.90;;;;;;4928477;29;19921;-72
2022/10/06 10:31:40;;;;;;;;;;;15.40;99.90;;;;;;4927964;29;19973;-73
2022/10/06 10:34:06;;;;;;;;;;;15.40;99.90;;;;;;4928072;29;19924;-71
2022/10/06 10:36:39;;;;;;;;;;;15.40;99.90;;;;;;4927648;29;19921;-73
2022/10/06 10:39:11;;;;;;;;;;;15.40;99.90;;;;;;4928048;29;20497;-69
2022/10/06 10:41:44;;;;;;;;;;;15.40;99.90;;;;;;4927731;29;19927;-74
2022/10/06 10:44:18;;;;;;;;;;;15.40;99.90;;;;;;4927932;29;19941;-70
2022/10/06 10:46:56;;;;;;;;;;;15.40;99.90;;;;;;4928102;29;19950;-69
2022/10/06 10:49:31;;;;;;;;;;;15.40;99.90;;;;;;4927363;29;19957;-73
2022/10/06 10:52:03;;;;;;;;;;;15.40;99.90;;;;;;4927626;29;19926;-71
2022/10/06 10:54:39;;;;;;;;;;;15.40;99.90;;;;;;4928059;29;20713;-75
2022/10/06 10:57:10;;;;;;;;;;;15.40;99.90;;;;;;4927502;29;19954;-74
2022/10/06 10:59:53;;;;;;;;;;;15.40;99.90;;;;;;4927765;29;19914;-76
2022/10/06 11:02:20;;;;;;;;;;;15.40;99.90;;;;;;4927126;29;19961;-69
2022/10/06 11:04:51;;;;;;;;;;;15.40;99.90;;;;;;4927743;29;19969;-69
2022/10/06 11:07:25;;;;;;;;;;;15.50;99.90;;;;;;4927548;29;19922;-71
2022/10/06 11:10:10;;;;;;;;;;;15.40;99.90;;;;;;4927037;29;19918;-71
2022/10/06 11:12:40;;;;;;;;;;;15.50;99.90;;;;;;4927530;29;20342;-68
2022/10/06 11:15:16;;;;;;;;;;;15.50;99.90;;;;;;4927249;29;20429;-69
2022/10/06 11:17:49;;;;;;;;;;;15.50;99.90;;;;;;4927606;29;19941;-70
2022/10/06 11:20:33;;;;;;;;;;;15.50;99.90;;;;;;4927083;29;19915;-70
2022/10/06 11:23:20;;;;;;;;;;;15.50;99.90;;;;;;4927526;29;19958;-69
2022/10/06 11:25:52;;;;;;;;;;;15.60;99.90;;;;;;4927404;29;20365;-69
2022/10/06 11:28:19;;;;;;;;;;;15.50;99.90;;;;;;4926985;29;20445;-69
2022/10/06 11:30:53;;;;;;;;;;;15.50;99.90;;;;;;4927183;29;20039;-70
2022/10/06 11:33:26;;;;;;;;;;;15.60;99.90;;;;;;4927211;29;20058;-71
2022/10/06 11:35:53;;;;;;;;;;;15.60;99.90;;;;;;4927244;29;19915;-73
2022/10/06 11:38:25;;;;;;;;;;;15.60;99.90;;;;;;4927361;29;19915;-72
2022/10/06 11:41:21;;;;;;;;;;;15.70;99.90;;;;;;4926672;29;19919;-69
2022/10/06 11:43:51;;;;;;;;;;;15.60;99.90;;;;;;4918194;29;19919;-72
2022/10/06 11:46:26;;;;;;;;;;;15.60;99.90;;;;;;4927001;29;19922;-73
2022/10/06 11:48:52;;;;;;;;;;;15.70;99.90;;;;;;4927205;29;19921;-72
2022/10/06 11:51:27;;;;;;;;;;;15.70;99.90;;;;;;4926048;29;19931;-68
2022/10/06 11:53:54;;;;;;;;;;;15.70;99.90;;;;;;4926821;29;19914;-72
2022/10/06 11:56:21;;;;;;;;;;;15.70;99.90;;;;;;4927123;29;19922;-74
2022/10/06 11:58:51;;;;;;;;;;;15.70;99.90;;;;;;4928535;29;19911;-74
2022/10/06 12:01:30;;;;;;;;;;;15.70;99.90;;;;;;4934356;29;20287;-70
2022/10/06 12:04:08;;;;;;;;;;;15.70;99.90;;;;;;4935108;29;20430;-74
2022/10/06 12:06:47;;;;;;;;;;;15.70;99.90;;;;;;4934853;29;20362;-76
2022/10/06 12:09:31;;;;;;;;;;;15.70;99.90;;;;;;4934895;29;19966;-75
2022/10/06 12:12:19;;;;;;;;;;;15.70;99.90;;;;;;4934927;29;19930;-75
2022/10/06 12:14:53;;;;;;;;;;;15.70;99.90;;;;;;4936746;29;20030;-75
2022/10/06 12:17:32;;;;;;;;;;;15.80;99.90;;;;;;4934979;29;19963;-73
2022/10/06 12:20:13;;;;;;;;;;;15.80;99.90;;;;;;4934484;29;19915;-71
2022/10/06 12:22:51;;;;;;;;;;;15.80;99.90;;;;;;4934968;29;19921;-74
2022/10/06 12:25:34;;;;;;;;;;;15.80;99.90;;;;;;4934588;29;19915;-76
2022/10/06 12:28:19;;;;;;;;;;;15.80;99.90;;;;;;4934747;29;20013;-74
2022/10/06 12:31:03;;;;;;;;;;;15.80;99.90;;;;;;4934223;29;20425;-75
2022/10/06 12:33:40;;;;;;;;;;;15.90;99.90;;;;;;4934765;29;19974;-74
2022/10/06 12:36:16;;;;;;;;;;;15.80;99.90;;;;;;4934633;29;19914;-71
2022/10/06 12:38:43;;;;;;;;;;;15.90;99.90;;;;;;4934602;29;19921;-70
2022/10/06 12:41:11;;;;;;;;;;;15.80;99.90;;;;;;4934053;29;19938;-74
2022/10/06 12:43:54;;;;;;;;;;;15.80;99.90;;;;;;4934603;29;19954;-74
2022/10/06 12:46:42;;;;;;;;;;;15.80;99.90;;;;;;4934558;29;19974;-70
2022/10/06 12:49:10;;;;;;;;;;;15.80;99.90;;;;;;4934332;29;19915;-71
2022/10/06 12:51:37;;;;;;;;;;;15.90;99.90;;;;;;4934020;29;20347;-75
2022/10/06 12:54:19;;;;;;;;;;;15.80;99.90;;;;;;4934500;29;19989;-72
2022/10/06 12:56:57;;;;;;;;;;;15.90;99.90;;;;;;4934577;29;19910;-73
2022/10/06 12:59:37;;;;;;;;;;;15.90;99.90;;;;;;4934375;29;19910;-70
2022/10/06 13:02:07;;;;;;;;;;;15.90;99.90;;;;;;4934869;29;20382;-72
2022/10/06 13:04:39;;;;;;;;;;;15.90;99.90;;;;;;4937973;29;19915;-75
2022/10/06 13:07:11;;;;;;;;;;;15.90;99.90;;;;;;4937633;29;19911;-74
2022/10/06 13:09:37;;;;;;;;;;;15.90;99.90;;;;;;4937585;29;19914;-73
2022/10/06 13:12:23;;;;;;;;;;;15.90;99.90;;;;;;4937955;29;19918;-72
2022/10/06 13:15:29;;;;;;;;;;;15.90;99.90;;;;;;4937922;29;19921;-74
2022/10/06 13:17:58;;;;;;;;;;;15.90;99.90;;;;;;4897494;29;19916;-71
2022/10/06 13:20:35;;;;;;;;;;;15.90;99.90;;;;;;4896984;29;19934;-75
2022/10/06 13:23:21;;;;;;;;;;;15.80;99.90;;;;;;4920371;29;19919;-74
2022/10/06 13:25:49;;;;;;;;;;;15.80;99.90;;;;;;4937780;29;19915;-75
2022/10/06 13:28:21;;;;;;;;;;;15.80;99.90;;;;;;4937867;29;20711;-74
2022/10/06 13:30:54;;;;;;;;;;;15.80;99.90;;;;;;4937358;29;19923;-71
2022/10/06 13:33:22;;;;;;;;;;;15.80;99.90;;;;;;4937618;29;19958;-74
2022/10/06 13:35:51;;;;;;;;;;;15.80;99.90;;;;;;4937428;29;19915;-74
2022/10/06 13:38:19;;;;;;;;;;;15.80;99.90;;;;;;4937452;29;19910;-72
2022/10/06 13:41:01;;;;;;;;;;;15.80;99.90;;;;;;4937175;29;19915;-71
2022/10/06 13:43:28;;;;;;;;;;;15.80;99.90;;;;;;4937623;29;19938;-70
2022/10/06 13:45:56;;;;;;;;;;;15.80;99.90;;;;;;4937180;29;19922;-72
2022/10/06 13:48:24;;;;;;;;;;;15.80;99.90;;;;;;4937243;29;20404;-72
2022/10/06 13:50:52;;;;;;;;;;;15.80;99.90;;;;;;4936633;29;20416;-68
2022/10/06 13:53:26;;;;;;;;;;;15.80;99.90;;;;;;4937024;29;19911;-73
2022/10/06 13:55:53;;;;;;;;;;;15.80;99.90;;;;;;4937216;29;19915;-72
2022/10/06 13:58:23;;;;;;;;;;;15.70;99.90;;;;;;4937180;29;20327;-75
2022/10/06 14:00:54;;;;;;;;;;;15.70;99.90;;;;;;4936773;29;19922;-73
2022/10/06 14:03:27;;;;;;;;;;;15.70;99.90;;;;;;4936735;29;20017;-69
2022/10/06 14:06:07;;;;;;;;;;;15.70;99.90;;;;;;4936805;29;19911;-74
2022/10/06 14:08:35;;;;;;;;;;;15.70;99.90;;;;;;4937110;29;19918;-74
2022/10/06 14:11:08;;;;;;;;;;;15.70;99.90;;;;;;4936511;29;20374;-72
2022/10/06 14:13:47;;;;;;;;;;;15.70;99.90;;;;;;4936408;29;20282;-72
2022/10/06 14:16:24;;;;;;;;;;;15.60;99.90;;;;;;4937016;29;19914;-73
2022/10/06 14:18:55;;;;;;;;;;;15.60;99.90;;;;;;4938134;29;19950;-74
2022/10/06 14:21:37;;;;;;;;;;;15.60;99.90;;;;;;4936725;29;19926;-73
2022/10/06 14:24:18;;;;;;;;;;;15.60;99.90;;;;;;4936711;29;19911;-74
2022/10/06 14:26:53;;;;;;;;;;;15.60;99.90;;;;;;4936600;29;20366;-73
2022/10/06 14:29:21;;;;;;;;;;;15.60;99.90;;;;;;4936110;29;19933;-68
2022/10/06 14:31:48;;;;;;;;;;;15.60;99.90;;;;;;4936417;29;19927;-73
2022/10/06 14:34:16;;;;;;;;;;;15.60;99.90;;;;;;4936295;29;19911;-72
2022/10/06 14:36:44;;;;;;;;;;;15.50;99.90;;;;;;4936355;29;20359;-73
2022/10/06 14:39:12;;;;;;;;;;;15.60;99.90;;;;;;4936117;29;20270;-71
2022/10/06 14:41:38;;;;;;;;;;;15.50;99.90;;;;;;4935942;29;20331;-72
2022/10/06 14:44:11;;;;;;;;;;;15.60;99.90;;;;;;4936254;29;19911;-74
2022/10/06 14:46:42;;;;;;;;;;;15.50;99.90;;;;;;4936154;29;19918;-69
2022/10/06 14:49:10;;;;;;;;;;;15.50;99.90;;;;;;4935928;29;19911;-73